createdAt,value
2023-01-17T00:02:56.982Z,97516.22
2023-01-17T00:08:18.025Z,97503.28
2023-01-17T00:13:19.573Z,97512.72
2023-01-17T00:18:21.088Z,97505.84
2023-01-17T00:23:43.648Z,97506.69
2023-01-17T00:28:47.019Z,97524.84
2023-01-17T00:33:50.282Z,97524.91
2023-01-17T00:38:51.740Z,97537.00
2023-01-17T00:44:12.093Z,97545.63
2023-01-17T00:49:32.524Z,97540.50
2023-01-17T00:54:52.576Z,97535.34
2023-01-17T01:00:12.831Z,97543.09
2023-01-17T01:05:33.889Z,97549.09
2023-01-17T01:10:54.707Z,97553.41
2023-01-17T01:16:18.556Z,97572.34
2023-01-17T01:21:38.855Z,97564.59
2023-01-17T01:26:58.718Z,97567.16
2023-01-17T01:32:19.283Z,97581.81
2023-01-17T01:37:20.691Z,97574.91
2023-01-17T01:42:23.724Z,97581.81
2023-01-17T01:47:36.901Z,97582.66
2023-01-17T01:52:43.390Z,97585.22
2023-01-17T01:57:49.235Z,97591.25
2023-01-17T02:02:53.472Z,97590.38
2023-01-17T02:08:03.660Z,97593.81
2023-01-17T02:13:07.812Z,97603.28
2023-01-17T02:18:42.823Z,97612.75
2023-01-17T02:23:56.493Z,97608.47
2023-01-17T02:29:18.344Z,97617.06
2023-01-17T02:34:22.928Z,97615.34
2023-01-17T02:39:31.782Z,97623.94
2023-01-17T02:44:41.039Z,97639.44
2023-01-17T02:49:42.638Z,97647.19
2023-01-17T02:55:23.829Z,97659.22
2023-01-17T03:00:28.446Z,97666.97
2023-01-17T03:05:41.338Z,97682.47
2023-01-17T03:10:44.239Z,97690.19
2023-01-17T03:15:45.904Z,97696.19
2023-01-17T03:20:47.697Z,97706.47
2023-01-17T03:25:49.663Z,97725.41
2023-01-17T03:30:51.327Z,97748.59
2023-01-17T03:35:54.528Z,97760.63
2023-01-17T03:40:56.126Z,97772.69
2023-01-17T03:46:06.714Z,97784.75
2023-01-17T03:51:08.307Z,97808.84
2023-01-17T03:56:09.955Z,97817.47
2023-01-17T04:01:12.103Z,97829.47
2023-01-17T04:06:13.692Z,97832.88
2023-01-17T04:11:15.445Z,97837.19
2023-01-17T04:16:18.800Z,97840.63
2023-01-17T04:21:20.461Z,97853.53
2023-01-17T04:26:21.982Z,97867.31
2023-01-17T04:31:23.539Z,97877.66
2023-01-17T04:36:25.076Z,97880.22
2023-01-17T04:41:26.706Z,97886.25
2023-01-17T04:46:28.478Z,97900.88
2023-01-17T04:51:30.066Z,97903.47
2023-01-17T04:56:31.562Z,97905.22
2023-01-17T05:01:33.236Z,97909.47
2023-01-17T05:06:35.007Z,97912.94
2023-01-17T05:11:36.607Z,97931.84
2023-01-17T05:16:38.093Z,97960.16
2023-01-17T05:21:39.634Z,97957.38
2023-01-17T05:26:42.982Z,98001.78
2023-01-17T05:31:44.518Z,97993.81
2023-01-17T05:36:46.341Z,98011.63
2023-01-17T05:41:47.966Z,98037.31
2023-01-17T05:46:49.481Z,98046.84
2023-01-17T05:51:52.376Z,98046.84
2023-01-17T05:56:55.089Z,98060.66
2023-01-17T06:02:00.598Z,98076.13
2023-01-17T06:07:02.118Z,98070.91
2023-01-17T06:12:03.931Z,98086.44
2023-01-17T06:17:05.469Z,98086.47
2023-01-17T06:22:07.342Z,98100.34
2023-01-17T06:27:10.482Z,98100.31
2023-01-17T06:32:14.016Z,98098.66
2023-01-17T06:37:15.607Z,98107.31
2023-01-17T06:42:17.214Z,98124.47
2023-01-17T06:47:18.693Z,98126.16
2023-01-17T06:52:20.229Z,98133.91
2023-01-17T06:57:21.763Z,98148.53
2023-01-17T07:02:23.330Z,98157.09
2023-01-17T07:07:25.038Z,98157.00
2023-01-17T07:12:26.617Z,98156.06
2023-01-17T07:17:28.138Z,98162.84
2023-01-17T07:22:29.998Z,98175.66
2023-01-17T07:27:33.432Z,98184.91
2023-01-17T07:32:35.360Z,98196.75
2023-01-17T07:37:36.979Z,98192.41
2023-01-17T07:42:38.563Z,98200.84
2023-01-17T07:47:40.270Z,98204.28
2023-01-17T07:52:41.879Z,98209.28
2023-01-17T07:57:43.445Z,98214.38
2023-01-17T08:02:45.203Z,98227.31
2023-01-17T08:07:46.918Z,98228.97
2023-01-17T08:12:50.063Z,98236.63
2023-01-17T08:17:53.270Z,98239.94
2023-01-17T08:22:56.608Z,98252.84
2023-01-17T08:34:20.751Z,98254.53
2023-01-17T08:39:38.092Z,98260.53
2023-01-17T08:44:44.475Z,98276.81
2023-01-17T08:49:46.555Z,98288.78
2023-01-17T08:54:48.343Z,98293.13
2023-01-17T08:59:50.577Z,98296.56
2023-01-17T09:04:53.673Z,98295.00
2023-01-17T09:09:55.938Z,98298.59
2023-01-17T09:31:40.899Z,98319.06
2023-01-17T09:54:54.161Z,98353.84
2023-01-17T10:07:05.351Z,98343.00
2023-01-17T10:24:18.959Z,98362.09
2023-01-17T10:29:57.883Z,98370.06
2023-01-17T10:40:55.527Z,98378.13
2023-01-17T10:53:39.398Z,98379.25
2023-01-17T10:58:53.188Z,98384.50
2023-01-17T11:04:00.941Z,98389.81
2023-01-17T11:21:20.790Z,98402.66
2023-01-17T11:26:50.486Z,98390.69
2023-01-17T11:38:32.792Z,98394.34
2023-01-17T11:44:05.024Z,98400.47
2023-01-17T11:49:31.143Z,98386.75
2023-01-17T11:54:41.040Z,98400.53
2023-01-17T11:59:54.984Z,98394.59
2023-01-17T12:06:09.123Z,98397.94
2023-01-17T12:29:14.823Z,98399.63
2023-01-17T12:41:25.486Z,98404.88
2023-01-17T12:53:52.112Z,98402.59
2023-01-17T13:41:42.161Z,98438.38
2023-01-17T13:52:52.898Z,98445.41
2023-01-17T13:59:10.244Z,98445.47
2023-01-17T16:21:19.538Z,98524.34
2023-01-17T17:42:15.546Z,98594.09
2023-01-17T17:47:46.023Z,98596.50
2023-01-17T17:53:29.047Z,98600.50
2023-01-17T17:58:51.617Z,98602.19
2023-01-17T18:04:18.851Z,98602.06
2023-01-17T18:10:04.207Z,98621.72
2023-01-17T18:15:50.397Z,98623.31
2023-01-17T18:32:52.387Z,98646.19
2023-01-17T18:52:08.703Z,98665.78
2023-01-17T18:57:21.385Z,98674.34
2023-01-17T19:02:24.251Z,98680.34
2023-01-17T19:07:29.219Z,98681.84
2023-01-17T19:12:31.122Z,98688.66
2023-01-17T19:17:35.651Z,98688.47
2023-01-17T19:22:37.883Z,98688.41
2023-01-17T19:27:39.548Z,98689.13
2023-01-17T19:32:41.239Z,98700.31
2023-01-17T19:37:47.822Z,98695.00
2023-01-17T19:42:49.505Z,98698.50
2023-01-17T19:47:51.293Z,98717.28
2023-01-17T19:52:53.242Z,98718.84
2023-01-17T19:57:55.182Z,98720.38
2023-01-17T20:02:56.990Z,98712.66
2023-01-17T20:08:02.458Z,98716.13
2023-01-17T20:13:04.805Z,98730.78
2023-01-17T20:18:06.415Z,98721.28
2023-01-17T20:23:08.579Z,98710.91
2023-01-17T20:28:10.310Z,98715.09
2023-01-17T20:33:15.295Z,98722.69
2023-01-17T20:38:19.187Z,98731.19
2023-01-17T20:43:24.932Z,98732.97
2023-01-17T20:48:26.871Z,98712.44
2023-01-17T20:53:28.434Z,98730.31
2023-01-17T20:58:30.918Z,98720.81
2023-01-17T21:03:33.898Z,98712.28
2023-01-17T21:08:37.465Z,98715.09
2023-01-17T21:13:45.063Z,98713.47
2023-01-17T21:18:48.166Z,98721.13
2023-01-17T21:23:50.854Z,98720.13
2023-01-17T21:28:53.186Z,98727.09
2023-01-17T21:34:00.562Z,98732.22
2023-01-17T21:39:05.589Z,98732.03
2023-01-17T21:44:11.899Z,98740.59
2023-01-17T21:49:19.610Z,98736.22
2023-01-17T21:54:44.074Z,98737.00
2023-01-17T21:59:46.005Z,98740.41
2023-01-17T22:04:47.587Z,98748.81
2023-01-17T22:09:49.173Z,98757.34
2023-01-17T22:14:50.828Z,98759.19
2023-01-17T22:19:55.524Z,98774.31
2023-01-17T22:24:57.291Z,98772.31
2023-01-17T22:29:58.786Z,98785.72
2023-01-17T22:35:00.291Z,98791.41
2023-01-17T22:40:04.803Z,98785.91
2023-01-17T22:45:07.702Z,98796.03
2023-01-17T22:50:10.003Z,98788.06
2023-01-17T22:55:12.132Z,98801.50
2023-01-17T23:00:14.503Z,98799.03
2023-01-17T23:05:16.215Z,98801.41
2023-01-17T23:10:47.468Z,98800.63
2023-01-17T23:16:07.790Z,98797.97
2023-01-17T23:21:09.513Z,98797.91
2023-01-17T23:26:11.013Z,98807.22
2023-01-17T23:31:12.665Z,98809.41
2023-01-17T23:36:14.271Z,98807.72
2023-01-17T23:41:34.442Z,98816.41
2023-01-17T23:46:36.096Z,98812.97
2023-01-17T23:51:37.741Z,98817.31
2023-01-17T23:56:39.253Z,98816.38
